Time;durP1;ratioP1;P1;durP2;ratioP2;P2;SDS_P1;SDS_P2;PMS_P1;PMS_P2;Temp;Humidity;BMP_temperature;BMP_pressure;BME280_temperature;BME280_humidity;BME280_pressure;Samples;Min_cycle;Max_cycle;Signal;HPM_P1;HPM_P2
2022/03/24 00:00:53;;;;;;;20.93;7.87;;;6.50;99.90;;;;;;5092046;28;20206;-73
2022/03/24 00:03:20;;;;;;;18.23;7.87;;;6.50;99.90;;;;;;5091882;28;20217;-73
2022/03/24 00:05:47;;;;;;;16.57;6.93;;;6.50;99.90;;;;;;5091419;28;20195;-72
2022/03/24 00:08:14;;;;;;;18.77;7.67;;;6.40;99.90;;;;;;5092169;28;20241;-72
2022/03/24 00:10:41;;;;;;;17.73;7.93;;;6.40;99.90;;;;;;5092024;28;20194;-72
2022/03/24 00:13:07;;;;;;;17.50;7.80;;;6.30;99.90;;;;;;5091487;28;20206;-72
2022/03/24 00:15:35;;;;;;;22.07;8.33;;;6.20;99.90;;;;;;5091849;28;20202;-72
2022/03/24 00:18:03;;;;;;;23.47;8.23;;;6.10;99.90;;;;;;5091593;28;20219;-72
2022/03/24 00:20:30;;;;;;;16.50;7.83;;;6.10;99.90;;;;;;5091632;28;20684;-72
2022/03/24 00:22:57;;;;;;;16.93;6.93;;;6.10;99.90;;;;;;5091946;28;20210;-72
2022/03/24 00:25:24;;;;;;;16.30;7.77;;;6.10;99.90;;;;;;5091545;28;20214;-72
2022/03/24 00:27:51;;;;;;;18.00;7.63;;;6.10;99.90;;;;;;5091762;28;20219;-72
2022/03/24 00:30:18;;;;;;;21.97;9.07;;;6.10;99.90;;;;;;5091731;28;20214;-76
2022/03/24 00:32:46;;;;;;;17.37;7.67;;;6.00;99.90;;;;;;5090243;28;20222;-73
2022/03/24 00:35:12;;;;;;;15.67;7.77;;;5.90;99.90;;;;;;5092378;28;20676;-72
2022/03/24 00:37:39;;;;;;;20.33;8.47;;;5.90;99.90;;;;;;5091670;28;20786;-73
2022/03/24 00:40:07;;;;;;;17.43;7.70;;;5.90;99.90;;;;;;5091983;28;20198;-72
2022/03/24 00:42:36;;;;;;;18.63;7.57;;;5.90;99.90;;;;;;5091868;28;20228;-72
2022/03/24 00:45:05;;;;;;;18.43;7.80;;;5.90;99.90;;;;;;5091931;28;20626;-73
2022/03/24 00:47:32;;;;;;;17.30;7.70;;;5.90;99.90;;;;;;5091322;28;20279;-72
2022/03/24 00:50:01;;;;;;;21.03;8.33;;;5.80;99.90;;;;;;5091543;28;20252;-72
2022/03/24 00:52:27;;;;;;;16.73;7.93;;;5.80;99.90;;;;;;5091284;28;20236;-72
2022/03/24 00:54:54;;;;;;;17.63;8.30;;;5.80;99.90;;;;;;5091596;28;20675;-76
2022/03/24 00:57:21;;;;;;;21.23;9.30;;;5.90;99.90;;;;;;5091335;28;20276;-72
2022/03/24 00:59:48;;;;;;;16.43;8.33;;;6.00;99.90;;;;;;5091442;28;20210;-74
2022/03/24 01:02:14;;;;;;;18.47;8.60;;;6.00;99.90;;;;;;5091609;28;20202;-72
2022/03/24 01:04:42;;;;;;;18.23;7.90;;;5.90;99.90;;;;;;5094367;28;20204;-72
2022/03/24 01:07:10;;;;;;;17.90;7.80;;;5.90;99.90;;;;;;5094933;28;20226;-72
2022/03/24 01:09:37;;;;;;;19.30;8.53;;;5.80;99.90;;;;;;5095405;28;20213;-73
2022/03/24 01:12:05;;;;;;;18.03;7.13;;;5.80;99.90;;;;;;5095295;28;20236;-72
2022/03/24 01:14:35;;;;;;;15.97;7.53;;;5.70;99.90;;;;;;5095128;28;20203;-73
2022/03/24 01:17:04;;;;;;;16.23;7.97;;;5.70;99.90;;;;;;5095369;28;20260;-72
2022/03/24 01:19:32;;;;;;;19.57;8.90;;;5.70;99.90;;;;;;5095295;28;20202;-72
2022/03/24 01:21:59;;;;;;;16.43;8.17;;;5.70;99.90;;;;;;5094858;28;20673;-74
2022/03/24 01:24:28;;;;;;;17.87;7.37;;;5.70;99.90;;;;;;5094938;28;20229;-73
2022/03/24 01:26:55;;;;;;;19.33;7.73;;;5.70;99.90;;;;;;5094492;28;20202;-72
2022/03/24 01:29:23;;;;;;;17.27;8.27;;;5.70;99.90;;;;;;5095037;28;20207;-72
2022/03/24 01:31:51;;;;;;;19.03;7.47;;;5.70;99.90;;;;;;5093531;28;20257;-73
2022/03/24 01:34:18;;;;;;;20.30;7.67;;;5.70;99.90;;;;;;5094113;28;20281;-72
2022/03/24 01:36:45;;;;;;;19.07;8.70;;;5.60;99.90;;;;;;5094726;28;20202;-72
2022/03/24 01:39:12;;;;;;;17.57;8.00;;;5.50;99.90;;;;;;5094850;28;20206;-72
2022/03/24 01:41:40;;;;;;;19.80;8.07;;;5.40;99.90;;;;;;5094771;28;20229;-72
2022/03/24 01:44:13;;;;;;;21.73;9.27;;;5.40;99.90;;;;;;5094954;28;20206;-72
2022/03/24 01:46:53;;;;;;;18.63;7.80;;;5.40;99.90;;;;;;5095154;28;20210;-72
2022/03/24 01:49:20;;;;;;;22.00;9.10;;;5.50;99.90;;;;;;5094587;28;20665;-71
2022/03/24 01:51:47;;;;;;;17.83;8.17;;;5.50;99.90;;;;;;5094570;28;20234;-72
2022/03/24 01:54:14;;;;;;;16.43;8.20;;;5.20;99.90;;;;;;5094722;28;20206;-72
2022/03/24 01:56:43;;;;;;;16.83;8.23;;;5.20;99.90;;;;;;5094772;28;20206;-72
2022/03/24 01:59:11;;;;;;;22.10;8.80;;;5.20;99.90;;;;;;5094482;28;20206;-72
2022/03/24 02:01:38;;;;;;;17.57;7.47;;;5.30;99.90;;;;;;5093782;28;20213;-72
2022/03/24 02:04:05;;;;;;;20.17;8.13;;;5.40;99.90;;;;;;5093687;28;20763;-72
2022/03/24 02:06:33;;;;;;;17.20;8.13;;;5.30;99.90;;;;;;5093351;28;20207;-75
2022/03/24 02:09:00;;;;;;;17.30;7.73;;;5.20;99.90;;;;;;5092932;28;20222;-73
2022/03/24 02:11:28;;;;;;;17.83;8.43;;;5.20;99.90;;;;;;5093531;28;20203;-75
2022/03/24 02:13:56;;;;;;;17.87;8.17;;;5.10;99.90;;;;;;5093954;28;20216;-72
2022/03/24 02:16:27;;;;;;;19.63;8.23;;;5.00;99.90;;;;;;5093067;28;20558;-72
2022/03/24 02:18:55;;;;;;;18.37;8.40;;;5.10;99.90;;;;;;5093996;28;20237;-74
2022/03/24 02:21:22;;;;;;;17.87;8.17;;;5.10;99.90;;;;;;5093780;28;20206;-72
2022/03/24 02:23:50;;;;;;;17.53;8.13;;;5.00;99.90;;;;;;5094078;28;20661;-71
2022/03/24 02:26:18;;;;;;;20.13;8.13;;;5.00;99.90;;;;;;5093680;28;20207;-72
2022/03/24 02:28:46;;;;;;;17.60;7.63;;;5.00;99.90;;;;;;5093876;28;20222;-72
2022/03/24 02:31:12;;;;;;;16.97;8.07;;;5.00;99.90;;;;;;5093784;28;20202;-72
2022/03/24 02:33:40;;;;;;;19.77;7.93;;;5.00;99.90;;;;;;5092507;28;20230;-72
2022/03/24 02:36:07;;;;;;;20.10;7.43;;;5.10;99.90;;;;;;5094277;28;20198;-72
2022/03/24 02:38:35;;;;;;;15.37;7.53;;;5.20;99.90;;;;;;5093762;28;20723;-72
2022/03/24 02:41:04;;;;;;;22.57;8.10;;;5.10;99.90;;;;;;5093944;28;20202;-72
2022/03/24 02:43:31;;;;;;;15.83;7.67;;;5.00;99.90;;;;;;5093459;28;20565;-72
2022/03/24 02:45:58;;;;;;;19.93;7.67;;;5.10;99.90;;;;;;5093427;28;20202;-72
2022/03/24 02:48:24;;;;;;;19.30;8.23;;;5.10;99.90;;;;;;5093069;28;20222;-72
2022/03/24 02:50:51;;;;;;;19.43;8.57;;;5.10;99.90;;;;;;5093245;28;20574;-72
2022/03/24 02:53:19;;;;;;;18.27;8.63;;;4.90;99.90;;;;;;5093588;28;20236;-72
2022/03/24 02:55:46;;;;;;;16.07;7.40;;;4.90;99.90;;;;;;5093040;28;20203;-72
2022/03/24 02:58:14;;;;;;;17.07;8.10;;;4.90;99.90;;;;;;5093315;28;20229;-72
2022/03/24 03:00:40;;;;;;;19.97;8.17;;;4.80;99.90;;;;;;5093916;28;20213;-71
2022/03/24 03:03:10;;;;;;;19.07;8.37;;;4.80;99.90;;;;;;5093551;28;20215;-71
2022/03/24 03:05:36;;;;;;;17.03;8.20;;;4.80;99.90;;;;;;5093094;28;20237;-71
2022/03/24 03:08:03;;;;;;;19.40;9.10;;;4.70;99.90;;;;;;5093298;28;20572;-72
2022/03/24 03:10:31;;;;;;;20.90;8.17;;;4.70;99.90;;;;;;5092950;28;20671;-72
2022/03/24 03:12:58;;;;;;;22.23;9.50;;;4.60;99.90;;;;;;5093134;28;20705;-72
2022/03/24 03:15:26;;;;;;;22.93;8.17;;;4.50;99.90;;;;;;5093089;28;20206;-72
2022/03/24 03:17:53;;;;;;;16.70;7.40;;;4.60;99.90;;;;;;5092663;28;20558;-72
2022/03/24 03:20:20;;;;;;;21.10;8.97;;;4.70;99.90;;;;;;5091818;28;20299;-72
2022/03/24 03:22:49;;;;;;;16.87;8.20;;;4.70;99.90;;;;;;5092378;28;20289;-72
2022/03/24 03:25:16;;;;;;;23.50;8.87;;;4.70;99.90;;;;;;5092738;28;20238;-74
2022/03/24 03:27:42;;;;;;;19.20;8.97;;;4.70;99.90;;;;;;5092568;28;20219;-73
2022/03/24 03:30:12;;;;;;;20.30;8.53;;;4.70;99.90;;;;;;5093337;28;20234;-72
2022/03/24 03:32:41;;;;;;;22.90;9.23;;;4.70;99.90;;;;;;5093076;28;20329;-72
2022/03/24 03:35:08;;;;;;;19.57;8.57;;;4.50;99.90;;;;;;5092052;28;20661;-71
2022/03/24 03:37:35;;;;;;;22.17;9.07;;;4.50;99.90;;;;;;5092451;28;20275;-71
2022/03/24 03:40:02;;;;;;;16.57;8.47;;;4.40;99.90;;;;;;5092757;28;20198;-72
2022/03/24 03:42:29;;;;;;;26.13;8.77;;;4.40;99.90;;;;;;5092994;28;20565;-73
2022/03/24 03:44:55;;;;;;;19.10;9.30;;;4.50;99.90;;;;;;5092248;28;20203;-72
2022/03/24 03:47:22;;;;;;;20.17;8.93;;;4.40;99.90;;;;;;5091994;28;20313;-72
2022/03/24 03:49:50;;;;;;;20.00;8.10;;;4.30;99.90;;;;;;5091872;28;20625;-71
2022/03/24 03:52:17;;;;;;;18.00;8.43;;;4.10;99.90;;;;;;5091832;28;20232;-72
2022/03/24 03:54:44;;;;;;;23.93;8.43;;;4.20;99.90;;;;;;5092353;28;20210;-72
2022/03/24 03:57:11;;;;;;;23.23;9.13;;;4.30;99.90;;;;;;5092117;28;20272;-72
2022/03/24 03:59:38;;;;;;;18.70;9.03;;;4.40;99.90;;;;;;5092399;28;20203;-72
2022/03/24 04:02:05;;;;;;;17.60;7.83;;;4.40;99.90;;;;;;5092349;28;20203;-72
2022/03/24 04:04:32;;;;;;;18.80;8.40;;;4.40;99.90;;;;;;5092308;28;20665;-71
2022/03/24 04:07:00;;;;;;;18.70;8.13;;;4.50;99.90;;;;;;5092270;28;20202;-72
2022/03/24 04:09:27;;;;;;;20.70;8.30;;;4.50;99.90;;;;;;5091189;28;20213;-74
2022/03/24 04:11:55;;;;;;;20.63;8.77;;;4.50;99.90;;;;;;5091974;28;20201;-74
2022/03/24 04:14:23;;;;;;;19.57;8.87;;;4.40;99.90;;;;;;5091959;28;20287;-72
2022/03/24 04:16:51;;;;;;;17.73;8.17;;;4.20;99.90;;;;;;5091763;28;20206;-72
2022/03/24 04:19:19;;;;;;;23.00;9.60;;;4.10;99.90;;;;;;5091860;28;20212;-72
2022/03/24 04:21:46;;;;;;;21.83;8.73;;;4.10;99.90;;;;;;5091657;28;20297;-72
2022/03/24 04:24:14;;;;;;;20.00;8.37;;;4.20;99.90;;;;;;5091602;28;20206;-72
2022/03/24 04:26:41;;;;;;;22.23;8.40;;;4.10;99.90;;;;;;5090892;28;20220;-72
2022/03/24 04:29:08;;;;;;;19.27;8.17;;;4.20;99.90;;;;;;5091673;28;20697;-74
2022/03/24 04:31:35;;;;;;;17.10;7.93;;;4.10;99.90;;;;;;5091273;28;20224;-72
2022/03/24 04:34:01;;;;;;;18.80;8.13;;;4.20;99.90;;;;;;5091449;28;20230;-73
2022/03/24 04:36:28;;;;;;;22.43;9.13;;;4.20;99.90;;;;;;5091868;28;20203;-72
2022/03/24 04:38:55;;;;;;;18.30;8.70;;;4.10;99.90;;;;;;5084415;28;20215;-72
2022/03/24 04:41:23;;;;;;;20.40;8.87;;;4.20;99.90;;;;;;5071743;28;20237;-72
2022/03/24 04:43:51;;;;;;;19.87;8.43;;;4.10;99.90;;;;;;5074387;28;20194;-73
2022/03/24 04:46:18;;;;;;;17.57;9.13;;;4.10;99.90;;;;;;5091675;28;20202;-72
2022/03/24 04:48:45;;;;;;;19.70;8.53;;;4.10;99.90;;;;;;5091697;28;20238;-74
2022/03/24 04:51:12;;;;;;;28.87;8.63;;;4.00;99.90;;;;;;5091094;28;20207;-72
2022/03/24 04:53:39;;;;;;;18.40;8.47;;;4.00;99.90;;;;;;5091378;28;20234;-72
2022/03/24 04:56:06;;;;;;;19.13;8.77;;;4.00;99.90;;;;;;5090848;28;20206;-74
2022/03/24 04:58:35;;;;;;;20.23;8.00;;;4.20;99.90;;;;;;5087592;28;20222;-72
2022/03/24 05:01:02;;;;;;;24.67;8.60;;;4.10;99.90;;;;;;5090901;28;20195;-73
2022/03/24 05:03:29;;;;;;;20.03;8.83;;;4.10;99.90;;;;;;5091265;28;20251;-73
2022/03/24 05:05:56;;;;;;;23.07;9.17;;;3.90;99.90;;;;;;5091521;28;20210;-75
2022/03/24 05:08:23;;;;;;;20.00;9.60;;;3.80;99.90;;;;;;5091184;28;20705;-72
2022/03/24 05:10:50;;;;;;;20.20;8.33;;;3.70;99.90;;;;;;5091342;28;20649;-73
2022/03/24 05:13:17;;;;;;;19.80;8.27;;;3.90;99.90;;;;;;5091421;28;20234;-75
2022/03/24 05:15:45;;;;;;;22.67;8.00;;;3.90;99.90;;;;;;5090697;28;20281;-72
2022/03/24 05:18:12;;;;;;;17.97;9.03;;;4.00;99.90;;;;;;5091152;28;20230;-72
2022/03/24 05:20:39;;;;;;;20.17;8.10;;;4.00;99.90;;;;;;5092143;28;20305;-72
2022/03/24 05:23:05;;;;;;;18.37;8.30;;;3.90;99.90;;;;;;5091337;28;20301;-72
2022/03/24 05:25:33;;;;;;;20.17;9.33;;;4.00;99.90;;;;;;5091068;28;20921;-73
2022/03/24 05:27:59;;;;;;;23.43;10.07;;;4.00;99.90;;;;;;5090863;28;20724;-74
2022/03/24 05:30:27;;;;;;;26.47;9.73;;;3.80;99.90;;;;;;5090986;28;20561;-71
2022/03/24 05:32:55;;;;;;;21.63;8.80;;;3.80;99.90;;;;;;5090141;28;20623;-72
2022/03/24 05:35:22;;;;;;;20.77;9.10;;;3.80;99.90;;;;;;5090544;28;20213;-74
2022/03/24 05:37:49;;;;;;;18.20;8.33;;;3.80;99.90;;;;;;5090932;28;20234;-74
2022/03/24 05:40:15;;;;;;;23.00;8.50;;;3.80;99.90;;;;;;5090892;28;20203;-72
2022/03/24 05:42:42;;;;;;;21.40;9.17;;;3.80;99.90;;;;;;5090920;28;20210;-72
2022/03/24 05:45:09;;;;;;;26.70;9.47;;;3.80;99.90;;;;;;5090821;28;20237;-75
2022/03/24 05:47:36;;;;;;;19.33;8.60;;;3.80;99.90;;;;;;5091446;28;20229;-73
2022/03/24 05:50:05;;;;;;;21.40;9.00;;;3.80;99.90;;;;;;5090842;28;20199;-75
2022/03/24 05:52:32;;;;;;;19.47;8.93;;;3.90;99.90;;;;;;5074268;28;20213;-72
2022/03/24 05:54:59;;;;;;;16.63;8.87;;;3.90;99.90;;;;;;5074388;28;20215;-75
2022/03/24 05:57:26;;;;;;;19.33;8.57;;;3.90;99.90;;;;;;5093235;28;20225;-72
2022/03/24 05:59:52;;;;;;;21.17;8.30;;;3.90;99.90;;;;;;5095126;28;20211;-72
2022/03/24 06:02:20;;;;;;;18.80;8.77;;;3.90;99.90;;;;;;5075473;28;20203;-74
2022/03/24 06:04:48;;;;;;;18.93;8.10;;;4.00;99.90;;;;;;5074470;28;20293;-72
2022/03/24 06:07:16;;;;;;;28.13;8.80;;;4.10;99.90;;;;;;5086471;28;20705;-72
2022/03/24 06:09:44;;;;;;;22.10;8.97;;;4.20;99.90;;;;;;5093920;28;20194;-72
2022/03/24 06:12:12;;;;;;;19.67;9.37;;;4.10;99.90;;;;;;5094000;28;20731;-73
2022/03/24 06:14:40;;;;;;;20.47;8.80;;;4.00;99.90;;;;;;5093212;28;20233;-72
2022/03/24 06:17:07;;;;;;;24.00;9.67;;;4.30;99.90;;;;;;5085531;28;20223;-72
2022/03/24 06:19:35;;;;;;;18.47;8.43;;;4.60;99.90;;;;;;5082504;28;20196;-72
2022/03/24 06:22:02;;;;;;;22.90;9.00;;;5.10;99.90;;;;;;5081702;28;20629;-72
2022/03/24 06:24:30;;;;;;;20.90;8.60;;;5.60;99.90;;;;;;5085204;28;20206;-72
2022/03/24 06:26:57;;;;;;;17.67;8.07;;;6.00;99.90;;;;;;5093560;28;20207;-71
2022/03/24 06:29:24;;;;;;;18.67;8.10;;;6.60;99.90;;;;;;5094874;28;20202;-72
2022/03/24 06:31:51;;;;;;;18.63;8.63;;;7.00;99.90;;;;;;5094788;28;20203;-73
2022/03/24 06:34:18;;;;;;;19.40;8.27;;;7.30;99.90;;;;;;5093578;28;20230;-72
2022/03/24 06:36:45;;;;;;;17.43;8.67;;;7.40;99.90;;;;;;5094635;28;20216;-73
2022/03/24 06:39:12;;;;;;;19.90;8.27;;;7.90;99.90;;;;;;5094567;28;20199;-73
2022/03/24 06:41:40;;;;;;;19.57;8.47;;;8.50;99.90;;;;;;5093927;28;20206;-72
2022/03/24 06:44:07;;;;;;;18.87;8.00;;;9.00;99.90;;;;;;5094440;28;20657;-72
2022/03/24 06:46:34;;;;;;;22.20;8.30;;;9.50;99.90;;;;;;5094439;28;20679;-72
2022/03/24 06:49:03;;;;;;;16.63;8.23;;;9.80;99.90;;;;;;5094180;28;20290;-72
2022/03/24 06:51:30;;;;;;;15.17;8.00;;;10.10;99.90;;;;;;5094149;28;20207;-73
2022/03/24 06:53:57;;;;;;;15.20;6.83;;;10.20;99.90;;;;;;5094202;28;20700;-74
2022/03/24 06:56:23;;;;;;;15.80;7.00;;;10.50;99.90;;;;;;5094023;28;20210;-73
2022/03/24 06:58:52;;;;;;;14.93;7.63;;;10.80;99.90;;;;;;5092607;28;20221;-75
2022/03/24 07:01:20;;;;;;;18.47;7.73;;;11.20;99.90;;;;;;5092207;28;20238;-72
2022/03/24 07:03:47;;;;;;;16.73;8.10;;;11.50;99.90;;;;;;5093389;28;20233;-72
2022/03/24 07:06:14;;;;;;;15.97;7.97;;;11.70;99.90;;;;;;5093953;28;20654;-74
2022/03/24 07:08:41;;;;;;;18.23;9.10;;;11.80;99.90;;;;;;5094033;28;20732;-72
2022/03/24 07:11:08;;;;;;;16.60;8.03;;;12.40;99.90;;;;;;5090199;28;20202;-72
2022/03/24 07:13:35;;;;;;;20.90;9.20;;;13.10;99.90;;;;;;5082351;28;20226;-72
2022/03/24 07:16:03;;;;;;;21.20;9.70;;;13.70;99.80;;;;;;5094265;28;20207;-72
2022/03/24 07:18:30;;;;;;;23.40;9.23;;;13.90;99.20;;;;;;5075062;28;20222;-72
2022/03/24 07:20:57;;;;;;;21.47;9.90;;;13.80;99.20;;;;;;5090044;28;20202;-73
2022/03/24 07:23:24;;;;;;;19.97;9.27;;;13.90;98.90;;;;;;5093824;28;20237;-73
2022/03/24 07:25:51;;;;;;;19.70;9.40;;;14.20;99.00;;;;;;5092569;28;20194;-72
2022/03/24 07:28:18;;;;;;;19.83;10.57;;;15.00;98.00;;;;;;5083703;28;20693;-73
2022/03/24 07:30:50;;;;;;;21.57;10.87;;;15.70;97.80;;;;;;5080847;28;20199;-74
2022/03/24 07:33:19;;;;;;;17.43;9.97;;;15.40;97.70;;;;;;5091258;28;20233;-73
2022/03/24 07:35:47;;;;;;;19.83;9.47;;;15.80;97.60;;;;;;5093381;28;20255;-74
2022/03/24 07:38:15;;;;;;;21.63;11.23;;;16.00;97.20;;;;;;5091814;28;20227;-74
2022/03/24 07:40:42;;;;;;;21.73;11.82;;;16.70;96.70;;;;;;5081909;28;20192;-75
2022/03/24 07:43:08;;;;;;;22.50;11.45;;;17.30;96.30;;;;;;5073096;28;20205;-73
2022/03/24 07:45:38;;;;;;;26.95;12.93;;;17.80;95.30;;;;;;5072451;28;20203;-76
2022/03/24 07:48:13;;;;;;;27.08;13.25;;;18.10;94.80;;;;;;5072873;28;20319;-73
2022/03/24 07:50:43;;;;;;;27.13;14.35;;;18.40;94.00;;;;;;5072773;28;20554;-72
2022/03/24 07:53:24;;;;;;;29.95;14.25;;;18.60;93.60;;;;;;5073010;28;20570;-75
2022/03/24 07:55:51;;;;;;;28.60;15.07;;;18.70;93.40;;;;;;5084747;28;20202;-73
2022/03/24 07:58:21;;;;;;;30.02;15.13;;;19.30;92.70;;;;;;5092852;28;20601;-73
2022/03/24 08:00:48;;;;;;;32.90;16.52;;;19.70;91.60;;;;;;5091570;28;20212;-72
2022/03/24 08:03:16;;;;;;;32.17;16.27;;;19.50;88.30;;;;;;5081292;28;20217;-72
2022/03/24 08:05:44;;;;;;;33.08;16.55;;;20.10;89.20;;;;;;5076120;28;20211;-72
2022/03/24 08:08:12;;;;;;;33.25;17.00;;;20.10;89.90;;;;;;5072633;28;20235;-72
2022/03/24 08:10:39;;;;;;;34.38;17.40;;;20.60;88.60;;;;;;5080283;28;20202;-73
2022/03/24 08:13:06;;;;;;;36.83;17.88;;;20.80;84.70;;;;;;5071609;28;20269;-72
2022/03/24 08:15:35;;;;;;;35.10;18.02;;;20.60;82.20;;;;;;5076664;28;20207;-75
2022/03/24 08:18:02;;;;;;;36.40;18.90;;;20.20;83.20;;;;;;5087398;28;20214;-75
2022/03/24 08:20:29;;;;;;;37.42;18.25;;;20.80;80.70;;;;;;5087225;28;20290;-74
2022/03/24 08:22:57;;;;;;;40.20;18.77;;;21.50;78.50;;;;;;5092450;28;20210;-75
2022/03/24 08:25:24;;;;;;;37.55;17.95;;;21.10;78.50;;;;;;5092661;28;20216;-75
2022/03/24 08:27:51;;;;;;;35.58;17.77;;;21.30;77.30;;;;;;5091832;28;20600;-73
2022/03/24 08:30:18;;;;;;;35.42;18.40;;;21.80;76.10;;;;;;5092128;28;20205;-73
2022/03/24 08:32:45;;;;;;;31.73;17.85;;;22.00;75.80;;;;;;5087772;28;20195;-74
2022/03/24 08:35:12;;;;;;;37.80;18.60;;;21.60;76.10;;;;;;5079407;28;20226;-76
2022/03/24 08:37:38;;;;;;;34.83;17.45;;;21.40;77.30;;;;;;5085877;28;20224;-73
2022/03/24 08:40:09;;;;;;;35.28;18.02;;;22.10;75.60;;;;;;5088271;28;20672;-73
2022/03/24 08:42:37;;;;;;;37.80;18.45;;;22.30;74.10;;;;;;5091555;28;20213;-76
2022/03/24 08:45:04;;;;;;;38.55;17.30;;;21.80;74.50;;;;;;5077938;28;20707;-72
2022/03/24 08:47:31;;;;;;;35.08;17.65;;;22.10;72.80;;;;;;5078397;28;20223;-75
2022/03/24 08:49:58;;;;;;;32.67;16.45;;;22.30;71.60;;;;;;5085069;28;20204;-73
2022/03/24 08:52:25;;;;;;;34.72;18.33;;;21.80;72.70;;;;;;5088173;28;20194;-74
2022/03/24 08:54:52;;;;;;;33.58;17.00;;;21.40;72.90;;;;;;5091479;28;20242;-74
2022/03/24 08:57:25;;;;;;;31.63;16.67;;;21.40;72.90;;;;;;5091298;28;20218;-74
2022/03/24 08:59:53;;;;;;;35.05;16.58;;;21.60;74.40;;;;;;5086003;28;20549;-76
2022/03/24 09:02:20;;;;;;;33.03;17.30;;;22.00;72.80;;;;;;5091975;28;20202;-72
2022/03/24 09:04:47;;;;;;;36.83;16.85;;;22.40;69.50;;;;;;5090562;28;20206;-72
2022/03/24 09:07:14;;;;;;;33.30;16.38;;;22.40;69.20;;;;;;5089474;28;20235;-72
2022/03/24 09:09:41;;;;;;;35.08;17.10;;;22.60;68.30;;;;;;5088127;28;20673;-72
2022/03/24 09:12:09;;;;;;;33.60;16.90;;;22.40;69.70;;;;;;5090415;28;20202;-74
2022/03/24 09:14:37;;;;;;;36.92;17.73;;;22.50;68.10;;;;;;5092026;28;20257;-74
2022/03/24 09:17:05;;;;;;;34.83;17.67;;;22.60;68.00;;;;;;5091747;28;20729;-76
2022/03/24 09:19:32;;;;;;;33.95;16.52;;;22.20;68.00;;;;;;5091033;28;20202;-75
2022/03/24 09:21:59;;;;;;;33.58;17.83;;;21.90;67.90;;;;;;5089113;28;20203;-72
2022/03/24 09:24:26;;;;;;;37.90;18.63;;;21.80;68.80;;;;;;5084343;28;20198;-73
2022/03/24 09:26:53;;;;;;;36.25;17.83;;;22.00;69.20;;;;;;5090381;28;20635;-74
2022/03/24 09:29:22;;;;;;;38.35;16.95;;;21.80;69.50;;;;;;5087487;28;20680;-76
2022/03/24 09:31:50;;;;;;;35.03;17.63;;;21.80;69.00;;;;;;5082307;28;20248;-75
2022/03/24 09:34:18;;;;;;;34.15;16.02;;;21.60;68.40;;;;;;5095095;28;20230;-74
2022/03/24 09:36:45;;;;;;;32.30;15.88;;;21.20;67.30;;;;;;5095985;28;20293;-75
2022/03/24 09:39:12;;;;;;;38.33;16.40;;;20.70;67.70;;;;;;5093930;28;20198;-73
2022/03/24 09:41:40;;;;;;;33.05;15.60;;;20.30;68.20;;;;;;5083939;28;20200;-73
2022/03/24 09:44:07;;;;;;;30.98;14.70;;;20.00;68.40;;;;;;5086313;28;20209;-74
2022/03/24 09:46:34;;;;;;;33.75;14.63;;;19.90;67.30;;;;;;5095762;28;20217;-73
2022/03/24 09:49:02;;;;;;;36.40;16.23;;;19.40;68.20;;;;;;5095274;28;20218;-72
2022/03/24 09:51:30;;;;;;;33.50;14.77;;;19.00;68.90;;;;;;5094212;28;20202;-72
2022/03/24 09:53:57;;;;;;;30.13;15.27;;;18.80;68.80;;;;;;5095414;28;20712;-72
2022/03/24 09:56:24;;;;;;;29.90;13.80;;;18.70;69.20;;;;;;5095451;28;20215;-72
2022/03/24 09:58:51;;;;;;;31.37;13.87;;;18.30;68.40;;;;;;5095165;28;20222;-74
2022/03/24 10:01:18;;;;;;;33.83;14.00;;;18.20;69.70;;;;;;5085797;28;20206;-72
2022/03/24 10:04:05;;;;;;;34.00;14.77;;;18.00;67.80;;;;;;5075193;28;20207;-75
2022/03/24 10:06:31;;;;;;;32.87;14.53;;;17.80;69.10;;;;;;5076554;28;20207;-71
2022/03/24 10:08:59;;;;;;;36.03;15.77;;;17.80;71.50;;;;;;5080054;28;20226;-73
2022/03/24 10:11:26;;;;;;;33.17;13.87;;;17.80;71.90;;;;;;5074993;28;20239;-72
2022/03/24 10:13:55;;;;;;;31.73;14.43;;;17.80;69.70;;;;;;5091412;28;20211;-72
2022/03/24 10:16:41;;;;;;;31.00;13.17;;;17.80;71.00;;;;;;5095012;28;20561;-73
2022/03/24 10:19:12;;;;;;;28.07;12.03;;;17.80;70.30;;;;;;5094711;28;20588;-72
2022/03/24 10:21:40;;;;;;;33.43;15.10;;;17.80;71.00;;;;;;5094757;28;20202;-73
2022/03/24 10:24:09;;;;;;;30.03;13.33;;;17.90;72.00;;;;;;5094817;28;20522;-72
2022/03/24 10:26:47;;;;;;;29.57;12.73;;;18.00;69.70;;;;;;5094513;28;20217;-73
2022/03/24 10:29:17;;;;;;;30.23;12.37;;;18.20;69.70;;;;;;5095350;28;20232;-74
2022/03/24 10:31:44;;;;;;;24.07;12.13;;;18.30;70.40;;;;;;5094786;28;20214;-73
2022/03/24 10:34:13;;;;;;;24.97;10.97;;;18.20;68.60;;;;;;5094612;28;20226;-72
2022/03/24 10:36:44;;;;;;;25.77;12.33;;;18.40;67.50;;;;;;5093961;28;20210;-73
2022/03/24 10:39:11;;;;;;;25.33;11.93;;;18.50;65.80;;;;;;5094680;28;20229;-73
2022/03/24 10:41:39;;;;;;;27.03;11.50;;;18.30;66.00;;;;;;5094815;28;20688;-72
2022/03/24 10:44:09;;;;;;;26.93;12.23;;;18.20;67.80;;;;;;5094757;28;20207;-72
2022/03/24 10:46:37;;;;;;;24.83;11.10;;;18.10;68.10;;;;;;5094989;28;20217;-73
2022/03/24 10:49:23;;;;;;;25.73;10.87;;;18.00;68.20;;;;;;5094801;28;20219;-72
2022/03/24 10:51:51;;;;;;;22.03;10.23;;;18.20;67.50;;;;;;5094400;28;20285;-72
2022/03/24 10:54:28;;;;;;;23.43;10.47;;;18.20;64.10;;;;;;5095099;28;20320;-73
2022/03/24 10:57:01;;;;;;;22.40;11.23;;;18.20;62.90;;;;;;5094041;28;20690;-74
2022/03/24 10:59:31;;;;;;;20.17;10.53;;;18.00;64.90;;;;;;5094027;28;20538;-73
2022/03/24 11:01:57;;;;;;;22.47;10.33;;;18.00;63.70;;;;;;5093628;28;20202;-74
2022/03/24 11:04:26;;;;;;;24.73;11.03;;;17.80;64.10;;;;;;5094334;28;20206;-73
2022/03/24 11:06:54;;;;;;;28.10;12.73;;;17.90;65.60;;;;;;5094055;28;20203;-72
2022/03/24 11:09:22;;;;;;;21.67;9.97;;;18.00;65.20;;;;;;5088753;28;20260;-73
2022/03/24 11:12:17;;;;;;;24.50;10.57;;;18.10;63.90;;;;;;5092262;28;20203;-73
2022/03/24 11:14:45;;;;;;;25.67;11.93;;;18.10;65.50;;;;;;5092787;28;20698;-76
2022/03/24 11:17:12;;;;;;;22.57;10.17;;;18.10;65.70;;;;;;5092173;28;20706;-73
2022/03/24 11:19:42;;;;;;;27.37;11.17;;;18.20;62.60;;;;;;5079202;28;20200;-74
2022/03/24 11:22:13;;;;;;;21.70;10.23;;;18.30;63.10;;;;;;5072069;28;20209;-74
2022/03/24 11:24:41;;;;;;;25.60;10.47;;;18.30;63.60;;;;;;5071894;28;20207;-71
2022/03/24 11:27:08;;;;;;;24.20;10.47;;;18.10;61.40;;;;;;5072034;28;20231;-73
2022/03/24 11:29:36;;;;;;;24.17;11.33;;;18.00;63.00;;;;;;5072178;28;20206;-73
2022/03/24 11:32:03;;;;;;;21.00;10.43;;;17.90;62.60;;;;;;5072649;28;20207;-72
2022/03/24 11:34:31;;;;;;;20.63;9.67;;;17.80;62.20;;;;;;5072240;28;20231;-71
2022/03/24 11:37:00;;;;;;;23.23;9.67;;;18.00;62.00;;;;;;5072263;28;20207;-72
2022/03/24 11:39:27;;;;;;;23.20;10.33;;;18.10;61.10;;;;;;5071561;28;20689;-72
2022/03/24 11:41:56;;;;;;;30.03;12.07;;;18.10;62.80;;;;;;5073459;28;20199;-71
2022/03/24 11:44:42;;;;;;;25.67;10.83;;;18.20;63.60;;;;;;5091798;28;20217;-71
2022/03/24 11:47:13;;;;;;;28.10;11.70;;;18.10;64.20;;;;;;5091904;28;20226;-72
2022/03/24 11:49:40;;;;;;;26.57;11.53;;;18.00;65.10;;;;;;5077907;28;20548;-72
2022/03/24 11:52:27;;;;;;;21.30;11.10;;;18.00;64.10;;;;;;5071353;28;20654;-72
2022/03/24 11:54:56;;;;;;;26.40;11.87;;;18.00;64.60;;;;;;5071839;28;20227;-71
2022/03/24 11:57:32;;;;;;;26.10;11.33;;;18.10;64.20;;;;;;5071523;28;20231;-76
2022/03/24 12:00:47;;;;;;;21.53;11.07;;;18.20;62.90;;;;;;5071658;28;20214;-77
2022/03/24 12:03:43;;;;;;;23.97;10.30;;;18.20;63.50;;;;;;5072015;28;20203;-72
2022/03/24 12:06:11;;;;;;;22.20;9.73;;;18.30;62.90;;;;;;5085929;28;20210;-74
2022/03/24 12:08:51;;;;;;;24.10;9.97;;;18.20;62.20;;;;;;5091721;28;20229;-71
2022/03/24 12:11:44;;;;;;;25.13;11.00;;;18.20;61.20;;;;;;5091737;28;20202;-71
2022/03/24 12:14:14;;;;;;;25.73;10.43;;;18.30;63.80;;;;;;5090862;28;20214;-70
2022/03/24 12:16:43;;;;;;;25.13;10.90;;;18.30;63.30;;;;;;5091607;28;20279;-72
2022/03/24 12:19:39;;;;;;;24.50;11.17;;;18.20;64.20;;;;;;5091539;28;20317;-77
2022/03/24 12:22:36;;;;;;;22.30;10.37;;;18.30;65.00;;;;;;5091309;28;20697;-74
2022/03/24 12:25:27;;;;;;;22.93;10.13;;;18.40;63.90;;;;;;5078606;28;20199;-72
2022/03/24 12:28:19;;;;;;;24.13;10.30;;;18.60;63.60;;;;;;5091491;28;20226;-71
2022/03/24 12:30:52;;;;;;;20.07;9.10;;;18.60;60.00;;;;;;5091617;28;20214;-74
2022/03/24 12:33:51;;;;;;;25.77;11.13;;;18.50;60.10;;;;;;5090950;28;20664;-71
2022/03/24 12:36:39;;;;;;;20.87;10.30;;;18.50;61.60;;;;;;5091104;28;20236;-75
2022/03/24 12:39:08;;;;;;;25.10;10.73;;;18.50;62.00;;;;;;5091546;28;20309;-75
2022/03/24 12:41:36;;;;;;;20.83;10.13;;;18.50;61.80;;;;;;5091303;28;20653;-73
2022/03/24 12:44:08;;;;;;;19.33;9.87;;;18.60;61.90;;;;;;5091352;28;20213;-73
2022/03/24 12:46:38;;;;;;;23.30;10.07;;;18.60;63.40;;;;;;5091749;28;20236;-74